Maersk Kotka — CQHT — position and weather

sailwx.info

Track history (hours):
 
Tides and Currents Weather Stations Pressure Air Temp Water Temp Dewpoint Dewpoint Depression Visibility Wind Speed Wind Dir Waves Ship Positions

Maersk Kotka

Last reported at 2017-Oct-20 12:30 UTC. Time now 2017-Oct-20 12:43 UTC.
Position N 52°37' E 004°02'.

Length 318 m; draft 11.5 m.

Type: Ship (hazmat cat A). MMSI: 255805595.

Date/timePositionNaut miles runAvg speedWind from/ knotsBaromVisibWave heightAir tempDewpointWater temp
2017-Oct-20 12:30N 52°37' E 004°02'714.4
2017-Oct-20 12:00N 52°31' E 003°56'714.3
2017-Oct-20 11:30N 52°24' E 003°53'713.7
2017-Oct-20 11:00N 52°17' E 003°53'612.9
2017-Oct-20 10:30N 52°11' E 003°54'511.0
2017-Oct-20 10:00N 52°05' E 003°54'4 7.3
2017-Oct-20 09:30N 52°02' E 003°55'613.0
2017-Oct-20 09:00N 51°59' E 004°04'2 3.5
2017-Oct-20 08:30N 51°58' E 004°03'0 0.1
2017-Oct-20 07:58N 51°57' E 004°03'0 0.0
2017-Oct-20 07:28N 51°57' E 004°03'0 0.0
2017-Oct-20 06:58N 51°57' E 004°03'0 0.0
2017-Oct-20 06:28N 51°57' E 004°03'0 0.0
2017-Oct-20 05:58N 51°57' E 004°03'0 0.0
2017-Oct-20 05:28N 51°57' E 004°03'0 0.0
2017-Oct-20 04:58N 51°57' E 004°03'0 0.0
2017-Oct-20 04:28N 51°57' E 004°03'0 0.0
2017-Oct-20 03:58N 51°57' E 004°03'0 0.0
2017-Oct-20 03:28N 51°57' E 004°03'0 0.0
2017-Oct-20 02:58N 51°57' E 004°03'0 0.0
2017-Oct-20 02:28N 51°57' E 004°03'0 0.0
2017-Oct-20 01:58N 51°57' E 004°03'0 0.0
2017-Oct-20 01:28N 51°57' E 004°03'0 0.0
2017-Oct-20 00:58N 51°57' E 004°03'0 0.0
2017-Oct-20 00:28N 51°57' E 004°03'0 0.0
2017-Oct-19 23:58N 51°57' E 004°03'0 0.0
2017-Oct-19 23:28N 51°57' E 004°03'0 0.0
2017-Oct-19 22:58N 51°57' E 004°03'0 0.0
2017-Oct-19 22:28N 51°57' E 004°03'0 0.0
2017-Oct-19 21:58N 51°57' E 004°03'0 0.0
2017-Oct-19 21:28N 51°57' E 004°03'0 0.0
2017-Oct-19 20:58N 51°57' E 004°03'0 0.0
2017-Oct-19 20:28N 51°57' E 004°03'0 0.0
2017-Oct-19 19:58N 51°57' E 004°03'0 0.0
2017-Oct-19 19:28N 51°57' E 004°03'0 0.0
2017-Oct-19 18:58N 51°57' E 004°03'0 0.0
2017-Oct-19 18:28N 51°57' E 004°03'0 0.0
2017-Oct-19 17:58N 51°57' E 004°03'0 0.0
2017-Oct-19 17:28N 51°57' E 004°03'0 0.0
2017-Oct-19 16:58N 51°57' E 004°03'0 0.6
2017-Oct-19 16:30N 51°58' E 004°03'1 2.4
2017-Oct-19 16:00N 51°58' E 004°05'3 5.8
2017-Oct-19 15:30N 51°60' E 004°01'714.1
2017-Oct-19 15:00N 52°00' E 003°50'611.4
2017-Oct-19 14:30N 51°58' E 003°41'5 9.4
2017-Oct-19 14:00N 51°55' E 003°36'0 0.2
2017-Oct-19 13:30N 51°55' E 003°36'0 0.0
2017-Oct-19 12:57N 51°55' E 003°36'0 0.0
2017-Oct-19 12:27N 51°55' E 003°36'0 0.2
2017-Oct-19 12:00N 51°55' E 003°36'0 0.2
2017-Oct-19 11:18N 51°55' E 003°36'0 0.2
2017-Oct-19 11:00N 51°55' E 003°36'0 0.2
2017-Oct-19 10:24N 51°55' E 003°36'0 0.0
2017-Oct-19 10:00N 51°55' E 003°36'0 0.0
2017-Oct-19 09:30N 51°55' E 003°36'0 0.0
2017-Oct-19 09:00N 51°55' E 003°36'0 0.0
2017-Oct-19 08:27N 51°55' E 003°36'0 0.0
2017-Oct-19 08:00N 51°55' E 003°36'0 0.0
2017-Oct-19 07:30N 51°55' E 003°36'0 0.0
2017-Oct-19 07:00N 51°55' E 003°36'0 0.1
2017-Oct-19 06:30N 51°55' E 003°36'0 0.1
2017-Oct-19 06:00N 51°55' E 003°36'0 0.1
2017-Oct-19 05:30N 51°55' E 003°36'0 0.1
2017-Oct-19 05:00N 51°55' E 003°36'0 0.1
2017-Oct-19 04:30N 51°55' E 003°36'0 0.1
2017-Oct-19 04:00N 51°55' E 003°36'0 0.0
2017-Oct-19 03:27N 51°55' E 003°36'0 0.0
2017-Oct-19 03:00N 51°55' E 003°36'0 0.0
2017-Oct-19 02:30N 51°55' E 003°36'0 0.0
2017-Oct-19 01:57N 51°55' E 003°36'0 0.0
2017-Oct-19 01:30N 51°55' E 003°36'0 0.0
2017-Oct-19 01:00N 51°55' E 003°36'0 0.0
2017-Oct-19 00:30N 51°55' E 003°36'0 0.2
2017-Oct-19 00:00N 51°55' E 003°36'0 0.5
2017-Oct-18 23:27N 51°55' E 003°36'0 0.1
2017-Oct-18 23:00N 51°55' E 003°36'0 0.1
2017-Oct-18 22:30N 51°55' E 003°36'4 7.4
2017-Oct-18 22:00N 51°54' E 003°30'812.3
2017-Oct-18 21:23N 51°54' E 003°17'4012.0
2017-Oct-18 18:04N 51°52' E 002°13'212.8
2017-Oct-18 17:53N 51°53' E 002°10'512.7
2017-Oct-18 17:30N 51°51' E 002°02'612.5
2017-Oct-18 17:00N 51°48' E 001°53'611.3
2017-Oct-18 16:30N 51°49' E 001°44'612.2
2017-Oct-18 16:00N 51°52' E 001°35'5 9.2
2017-Oct-18 15:30N 51°56' E 001°32'714.9
2017-Oct-18 15:00N 51°55' E 001°20'3 2.5
2017-Oct-18 13:59N 51°58' E 001°18'0 0.0
2017-Oct-18 13:29N 51°58' E 001°18'0 0.0
2017-Oct-18 12:59N 51°58' E 001°18'0 0.0
2017-Oct-18 12:29N 51°58' E 001°18'0 0.0
2017-Oct-18 11:59N 51°58' E 001°18'0 0.0
2017-Oct-18 11:29N 51°58' E 001°18'0 0.0
2017-Oct-18 10:59N 51°58' E 001°18'0 0.0
2017-Oct-18 10:29N 51°58' E 001°18'0 0.0
2017-Oct-18 09:59N 51°58' E 001°18'0 0.0
2017-Oct-18 09:29N 51°58' E 001°18'0 0.0
2017-Oct-18 08:59N 51°58' E 001°18'0 0.0
2017-Oct-18 08:29N 51°58' E 001°18'0 0.0
2017-Oct-18 07:59N 51°58' E 001°18'0 0.0
2017-Oct-18 07:29N 51°58' E 001°18'0 0.0
2017-Oct-18 06:59N 51°58' E 001°18'0 0.0
2017-Oct-18 06:29N 51°58' E 001°18'0 0.0
2017-Oct-18 05:59N 51°58' E 001°18'0 0.0
2017-Oct-18 05:29N 51°58' E 001°18'0 0.0
2017-Oct-18 04:59N 51°58' E 001°18'0 0.0
2017-Oct-18 04:29N 51°58' E 001°18'0 0.0
2017-Oct-18 03:59N 51°58' E 001°18'0 0.0
2017-Oct-18 03:29N 51°58' E 001°18'0 0.0
2017-Oct-18 02:59N 51°58' E 001°18'0 0.0
2017-Oct-18 02:29N 51°58' E 001°18'0 0.0
2017-Oct-18 01:59N 51°58' E 001°18'0 0.0
2017-Oct-18 01:29N 51°58' E 001°18'0 0.0
2017-Oct-18 00:59N 51°58' E 001°18'0 0.0
2017-Oct-18 00:29N 51°58' E 001°18'0 0.0
2017-Oct-17 23:59N 51°58' E 001°18'0 0.0
2017-Oct-17 23:29N 51°58' E 001°18'0 0.0
2017-Oct-17 22:59N 51°58' E 001°18'0 0.0
2017-Oct-17 22:29N 51°58' E 001°18'0 0.0
2017-Oct-17 21:59N 51°58' E 001°18'0 0.9
2017-Oct-17 21:30N 51°57' E 001°18'3 5.1
2017-Oct-17 21:00N 51°56' E 001°21'714.1
2017-Oct-17 20:30N 51°56' E 001°33'611.3
2017-Oct-17 20:00N 51°52' E 001°39'4 7.7
2017-Oct-17 19:30N 51°51' E 001°45'3 5.5
2017-Oct-17 19:00N 51°49' E 001°48'4 7.7
2017-Oct-17 18:30N 51°45' E 001°48'4 7.7
2017-Oct-17 18:00N 51°42' E 001°49'510.3
2017-Oct-17 17:30N 51°37' E 001°53'1 1.8
2017-Oct-17 17:00N 51°37' E 001°54'0 0.6
2017-Oct-17 16:31N 51°37' E 001°54'0 0.7
2017-Oct-17 16:00N 51°37' E 001°54'0 0.6
2017-Oct-17 15:31N 51°37' E 001°54'0 0.9
2017-Oct-17 15:00N 51°37' E 001°53'0 0.8
2017-Oct-17 14:31N 51°37' E 001°52'0 0.7
2017-Oct-17 14:01N 51°37' E 001°52'1 2.1
2017-Oct-17 13:31N 51°36' E 001°51'1 2.1
2017-Oct-17 13:00N 51°35' E 001°51'2 3.3
2017-Oct-17 12:31N 51°36' E 001°53'1 1.6
2017-Oct-17 12:01N 51°35' E 001°53'1 2.7
2017-Oct-17 11:30N 51°34' E 001°52'1 2.3
2017-Oct-17 11:00N 51°33' E 001°51'1 2.9
2017-Oct-17 10:30N 51°34' E 001°52'1 1.5
2017-Oct-17 10:00N 51°34' E 001°53'1 1.8
2017-Oct-17 09:31N 51°34' E 001°52'1 2.6
2017-Oct-17 09:01N 51°32' E 001°53'4 7.1
2017-Oct-17 08:30N 51°29' E 001°55'3 6.5
2017-Oct-17 08:01N 51°26' E 001°58'3 6.3
2017-Oct-17 07:31N 51°25' E 002°03'3 6.3
2017-Oct-17 07:00N 51°23' E 002°07'3 6.5
2017-Oct-17 06:31N 51°22' E 002°12'3 6.8
2017-Oct-17 06:01N 51°20' E 002°16'4 8.3
2017-Oct-17 05:31N 51°21' E 002°23'4 8.4
2017-Oct-17 05:00N 51°23' E 002°29'4 7.8
2017-Oct-17 04:30N 51°23' E 002°36'4 7.9
2017-Oct-17 04:00N 51°24' E 002°42'5 9.4
2017-Oct-17 03:30N 51°25' E 002°49'817.0
2017-Oct-17 03:01N 51°25' E 003°02'917.3
2017-Oct-17 02:30N 51°25' E 003°16'918.1
2017-Oct-17 02:01N 51°25' E 003°31'5 9.5
2017-Oct-17 01:30N 51°26' E 003°38'713.1
2017-Oct-17 01:01N 51°22' E 003°46'713.4
2017-Oct-17 00:30N 51°23' E 003°56'4 8.4
2017-Oct-17 00:00N 51°25' E 004°02'5 9.6
2017-Oct-16 23:30N 51°22' E 004°09'4 8.0
2017-Oct-16 23:00N 51°21' E 004°15'3 6.9
2017-Oct-16 22:31N 51°18' E 004°16'0 0.5
2017-Oct-16 22:00N 51°18' E 004°16'0 0.0
2017-Oct-16 21:30N 51°18' E 004°16'0 0.0
2017-Oct-16 21:00N 51°18' E 004°16'0 0.0
2017-Oct-16 20:30N 51°18' E 004°16'0 0.0
2017-Oct-16 20:00N 51°18' E 004°16'0 0.0
2017-Oct-16 19:30N 51°18' E 004°16'0 0.0
2017-Oct-16 19:00N 51°18' E 004°16'0 0.0
2017-Oct-16 18:30N 51°18' E 004°16'0 0.0
2017-Oct-16 17:57N 51°18' E 004°16'0 0.0
2017-Oct-16 17:30N 51°18' E 004°16'0 0.0
2017-Oct-16 17:00N 51°18' E 004°16'0 0.0
2017-Oct-16 16:30N 51°18' E 004°16'0 0.0
2017-Oct-16 16:00N 51°18' E 004°16'0 0.0
2017-Oct-16 15:29N 51°18' E 004°16'0 0.0
2017-Oct-16 14:59N 51°18' E 004°16'0 0.0
2017-Oct-16 13:59N 51°18' E 004°16'0 0.0
2017-Oct-16 13:29N 51°18' E 004°16'0 0.0
2017-Oct-16 12:56N 51°18' E 004°16'0 0.0
2017-Oct-16 12:29N 51°18' E 004°16'0 0.0
2017-Oct-16 11:56N 51°18' E 004°16'0 0.0
2017-Oct-16 11:29N 51°18' E 004°16'0 0.0
2017-Oct-16 10:59N 51°18' E 004°16'0 0.0
2017-Oct-16 10:29N 51°18' E 004°16'0 0.0
2017-Oct-16 09:59N 51°18' E 004°16'0 0.0
2017-Oct-16 09:29N 51°18' E 004°16'0 0.0
2017-Oct-16 08:59N 51°18' E 004°16'0 0.0
2017-Oct-16 08:29N 51°18' E 004°16'0 0.0
2017-Oct-16 07:59N 51°18' E 004°16'0 0.0
2017-Oct-16 07:29N 51°18' E 004°16'0 0.0
2017-Oct-16 06:59N 51°18' E 004°16'0 0.0
2017-Oct-16 06:29N 51°18' E 004°16'0 0.0
2017-Oct-16 05:59N 51°18' E 004°16'0 0.0
2017-Oct-16 05:29N 51°18' E 004°16'0 0.0
2017-Oct-16 04:59N 51°18' E 004°16'0 0.0
2017-Oct-16 04:29N 51°18' E 004°16'0 0.0
2017-Oct-16 03:59N 51°18' E 004°16'0 0.0
2017-Oct-16 03:29N 51°18' E 004°16'0 0.0
2017-Oct-16 02:59N 51°18' E 004°16'0 0.0
2017-Oct-16 02:29N 51°18' E 004°16'0 0.0
2017-Oct-16 01:59N 51°18' E 004°16'0 0.0
2017-Oct-16 01:29N 51°18' E 004°16'0 0.0
2017-Oct-16 00:59N 51°18' E 004°16'0 0.0
2017-Oct-16 00:29N 51°18' E 004°16'0 0.0
2017-Oct-15 23:59N 51°18' E 004°16'0 0.0
2017-Oct-15 23:29N 51°18' E 004°16'0 0.0
2017-Oct-15 22:59N 51°18' E 004°16'0 0.0
2017-Oct-15 22:29N 51°18' E 004°16'0 0.0
2017-Oct-15 21:59N 51°18' E 004°16'0 0.0
2017-Oct-15 21:29N 51°18' E 004°16'0 0.0
2017-Oct-15 20:59N 51°18' E 004°16'0 0.0
2017-Oct-15 20:30N 51°18' E 004°16'1 1.7
2017-Oct-15 20:00N 51°19' E 004°16'3 5.2
2017-Oct-15 19:30N 51°21' E 004°15'5 9.7
2017-Oct-15 19:00N 51°22' E 004°08'612.4
2017-Oct-15 18:31N 51°26' E 004°00'713.8
2017-Oct-15 18:00N 51°21' E 003°53'612.2
2017-Oct-15 17:31N 51°23' E 003°43'510.4
2017-Oct-15 17:00N 51°26' E 003°37'4 7.3
2017-Oct-15 16:31N 51°25' E 003°31'5 9.5
2017-Oct-15 16:00N 51°24' E 003°24'510.8
2017-Oct-15 15:30N 51°25' E 003°15'611.1
2017-Oct-15 15:00N 51°24' E 003°06'1413.5
2017-Oct-15 14:00N 51°24' E 002°44'3 6.5
2017-Oct-15 13:30N 51°23' E 002°39'3 5.8
2017-Oct-15 13:01N 51°22' E 002°35'4 6.2
2017-Oct-15 12:26N 51°22' E 002°29'3 6.8
2017-Oct-15 12:01N 51°21' E 002°25'4 7.1
2017-Oct-15 11:30N 51°19' E 002°20'4 7.4
2017-Oct-15 11:01N 51°17' E 002°15'4 7.6
2017-Oct-15 10:30N 51°15' E 002°10'4 7.9
2017-Oct-15 10:00N 51°13' E 002°05'5 9.4
2017-Oct-15 09:30N 51°11' E 001°58'611.1
2017-Oct-15 09:00N 51°08' E 001°50'611.1
2017-Oct-15 08:30N 51°04' E 001°44'611.5
2017-Oct-15 08:00N 50°60' E 001°38'611.7
2017-Oct-15 07:30N 50°56' E 001°32'611.3
2017-Oct-15 07:00N 50°51' E 001°27'611.4
2017-Oct-15 06:30N 50°45' E 001°24'611.4
2017-Oct-15 06:00N 50°40' E 001°20'611.2
2017-Oct-15 05:30N 50°36' E 001°14'611.4
2017-Oct-15 05:00N 50°33' E 001°07'611.4
2017-Oct-15 04:30N 50°29' E 001°00'611.3
2017-Oct-15 04:00N 50°27' E 000°52'612.3
2017-Oct-15 03:30N 50°25' E 000°43'612.8
2017-Oct-15 03:00N 50°23' E 000°33'612.6
2017-Oct-15 02:30N 50°22' E 000°23'612.4
2017-Oct-15 02:00N 50°21' E 000°14'612.4
2017-Oct-15 01:30N 50°19' E 000°04'612.3
2017-Oct-15 01:00N 50°16' W 000°04'612.3
2017-Oct-15 00:30N 50°15' W 000°14'611.9
2017-Oct-15 00:00N 50°14' W 000°23'612.6
2017-Oct-14 23:30N 50°13' W 000°32'612.6
2017-Oct-14 23:00N 50°11' W 000°42'612.3
2017-Oct-14 22:30N 50°09' W 000°51'611.9
2017-Oct-14 21:59N 50°08' W 001°00'611.4
2017-Oct-14 21:30N 50°07' W 001°09'510.9
2017-Oct-14 21:00N 50°06' W 001°17'510.8
2017-Oct-14 20:31N 50°04' W 001°25'611.0
2017-Oct-14 20:00N 50°03' W 001°34'611.2
2017-Oct-14 19:31N 50°02' W 001°42'611.1
2017-Oct-14 19:00N 50°01' W 001°51'510.8
2017-Oct-14 18:31N 49°60' W 001°59'510.9
2017-Oct-14 18:00N 49°58' W 002°07'611.2
2017-Oct-14 17:30N 49°57' W 002°16'611.3
2017-Oct-14 16:58N 49°56' W 002°25'511.8
2017-Oct-14 16:30N 49°54' W 002°33'612.0
2017-Oct-14 16:00N 49°53' W 002°42'611.9
2017-Oct-14 15:30N 49°51' W 002°51'611.9
2017-Oct-14 15:00N 49°51' W 002°60'611.8
2017-Oct-14 14:30N 49°50' W 003°09'611.9
2017-Oct-14 14:00N 49°50' W 003°18'611.9
2017-Oct-14 13:30N 49°49' W 003°27'611.8
2017-Oct-14 13:00N 49°48' W 003°37'611.9
2017-Oct-14 12:30N 49°48' W 003°46'611.8
2017-Oct-14 12:00N 49°48' W 003°55'612.0
2017-Oct-14 11:30N 49°47' W 004°04'612.3
2017-Oct-14 11:00N 49°47' W 004°14'612.1
2017-Oct-14 10:30N 49°46' W 004°23'612.0
2017-Oct-14 10:00N 49°45' W 004°32'611.9
2017-Oct-14 09:30N 49°44' W 004°41'611.9
2017-Oct-14 09:00N 49°44' W 004°50'611.7
2017-Oct-14 08:30N 49°43' W 004°59'816.4
2017-Oct-14 08:00N 49°43' W 005°12'816.5
2017-Oct-14 07:29N 49°42' W 005°25'916.9
2017-Oct-14 06:57N 49°41' W 005°39'716.7
2017-Oct-14 06:30N 49°40' W 005°50'816.6
2017-Oct-14 06:00N 49°40' W 006°03'1216.3
2017-Oct-14 05:15N 49°39' W 006°22'416.2
2017-Oct-14 05:01N 49°39' W 006°28'816.1
2017-Oct-14 04:30N 49°39' W 006°41'1016.0
2017-Oct-14 03:55N 49°38' W 006°56'716.0
2017-Oct-14 03:30N 49°38' W 007°06'915.9
2017-Oct-14 02:55N 49°38' W 007°20'716.1
2017-Oct-14 02:30N 49°38' W 007°30'85616.9
2017-Oct-12 00:00N 47°42' W 028°54'   200 / 271001.410.8 17.615.816.0
Track history (hours):
 
Tides and Currents Weather Stations Pressure Air Temp Water Temp Dewpoint Dewpoint Depression Visibility Wind Speed Wind Dir Waves Ship Positions

Maersk Kotka

Last reported at 2017-Oct-20 12:30 UTC. Time now 2017-Oct-20 12:43 UTC.
Position N 52°37' E 004°02'.

Length 318 m; draft 11.5 m.

Type: Ship (hazmat cat A). MMSI: 255805595.

Date/timePositionNaut miles runAvg speedWind from/ knotsBaromVisibWave heightAir tempDewpointWater temp
2017-Oct-20 12:30N 52°37' E 004°02'714.4
2017-Oct-20 12:00N 52°31' E 003°56'714.3
2017-Oct-20 11:30N 52°24' E 003°53'713.7
2017-Oct-20 11:00N 52°17' E 003°53'612.9
2017-Oct-20 10:30N 52°11' E 003°54'511.0
2017-Oct-20 10:00N 52°05' E 003°54'4 7.3
2017-Oct-20 09:30N 52°02' E 003°55'613.0
2017-Oct-20 09:00N 51°59' E 004°04'2 3.5
2017-Oct-20 08:30N 51°58' E 004°03'0 0.1
2017-Oct-20 07:58N 51°57' E 004°03'0 0.0
2017-Oct-20 07:28N 51°57' E 004°03'0 0.0
2017-Oct-20 06:58N 51°57' E 004°03'0 0.0
2017-Oct-20 06:28N 51°57' E 004°03'0 0.0
2017-Oct-20 05:58N 51°57' E 004°03'0 0.0
2017-Oct-20 05:28N 51°57' E 004°03'0 0.0
2017-Oct-20 04:58N 51°57' E 004°03'0 0.0
2017-Oct-20 04:28N 51°57' E 004°03'0 0.0
2017-Oct-20 03:58N 51°57' E 004°03'0 0.0
2017-Oct-20 03:28N 51°57' E 004°03'0 0.0
2017-Oct-20 02:58N 51°57' E 004°03'0 0.0
2017-Oct-20 02:28N 51°57' E 004°03'0 0.0
2017-Oct-20 01:58N 51°57' E 004°03'0 0.0
2017-Oct-20 01:28N 51°57' E 004°03'0 0.0
2017-Oct-20 00:58N 51°57' E 004°03'0 0.0
2017-Oct-20 00:28N 51°57' E 004°03'0 0.0
2017-Oct-19 23:58N 51°57' E 004°03'0 0.0
2017-Oct-19 23:28N 51°57' E 004°03'0 0.0
2017-Oct-19 22:58N 51°57' E 004°03'0 0.0
2017-Oct-19 22:28N 51°57' E 004°03'0 0.0
2017-Oct-19 21:58N 51°57' E 004°03'0 0.0
2017-Oct-19 21:28N 51°57' E 004°03'0 0.0
2017-Oct-19 20:58N 51°57' E 004°03'0 0.0
2017-Oct-19 20:28N 51°57' E 004°03'0 0.0
2017-Oct-19 19:58N 51°57' E 004°03'0 0.0
2017-Oct-19 19:28N 51°57' E 004°03'0 0.0
2017-Oct-19 18:58N 51°57' E 004°03'0 0.0
2017-Oct-19 18:28N 51°57' E 004°03'0 0.0
2017-Oct-19 17:58N 51°57' E 004°03'0 0.0
2017-Oct-19 17:28N 51°57' E 004°03'0 0.0
2017-Oct-19 16:58N 51°57' E 004°03'0 0.6
2017-Oct-19 16:30N 51°58' E 004°03'1 2.4
2017-Oct-19 16:00N 51°58' E 004°05'3 5.8
2017-Oct-19 15:30N 51°60' E 004°01'714.1
2017-Oct-19 15:00N 52°00' E 003°50'611.4
2017-Oct-19 14:30N 51°58' E 003°41'5 9.4
2017-Oct-19 14:00N 51°55' E 003°36'0 0.2
2017-Oct-19 13:30N 51°55' E 003°36'0 0.0
2017-Oct-19 12:57N 51°55' E 003°36'0 0.0
2017-Oct-19 12:27N 51°55' E 003°36'0 0.2
2017-Oct-19 12:00N 51°55' E 003°36'0 0.2
2017-Oct-19 11:18N 51°55' E 003°36'0 0.2
2017-Oct-19 11:00N 51°55' E 003°36'0 0.2
2017-Oct-19 10:24N 51°55' E 003°36'0 0.0
2017-Oct-19 10:00N 51°55' E 003°36'0 0.0
2017-Oct-19 09:30N 51°55' E 003°36'0 0.0
2017-Oct-19 09:00N 51°55' E 003°36'0 0.0
2017-Oct-19 08:27N 51°55' E 003°36'0 0.0
2017-Oct-19 08:00N 51°55' E 003°36'0 0.0
2017-Oct-19 07:30N 51°55' E 003°36'0 0.0
2017-Oct-19 07:00N 51°55' E 003°36'0 0.1
2017-Oct-19 06:30N 51°55' E 003°36'0 0.1
2017-Oct-19 06:00N 51°55' E 003°36'0 0.1
2017-Oct-19 05:30N 51°55' E 003°36'0 0.1
2017-Oct-19 05:00N 51°55' E 003°36'0 0.1
2017-Oct-19 04:30N 51°55' E 003°36'0 0.1
2017-Oct-19 04:00N 51°55' E 003°36'0 0.0
2017-Oct-19 03:27N 51°55' E 003°36'0 0.0
2017-Oct-19 03:00N 51°55' E 003°36'0 0.0
2017-Oct-19 02:30N 51°55' E 003°36'0 0.0
2017-Oct-19 01:57N 51°55' E 003°36'0 0.0
2017-Oct-19 01:30N 51°55' E 003°36'0 0.0
2017-Oct-19 01:00N 51°55' E 003°36'0 0.0
2017-Oct-19 00:30N 51°55' E 003°36'0 0.2
2017-Oct-19 00:00N 51°55' E 003°36'0 0.5
2017-Oct-18 23:27N 51°55' E 003°36'0 0.1
2017-Oct-18 23:00N 51°55' E 003°36'0 0.1
2017-Oct-18 22:30N 51°55' E 003°36'4 7.4
2017-Oct-18 22:00N 51°54' E 003°30'812.3
2017-Oct-18 21:23N 51°54' E 003°17'4012.0
2017-Oct-18 18:04N 51°52' E 002°13'212.8
2017-Oct-18 17:53N 51°53' E 002°10'512.7
2017-Oct-18 17:30N 51°51' E 002°02'612.5
2017-Oct-18 17:00N 51°48' E 001°53'611.3
2017-Oct-18 16:30N 51°49' E 001°44'612.2
2017-Oct-18 16:00N 51°52' E 001°35'5 9.2
2017-Oct-18 15:30N 51°56' E 001°32'714.9
2017-Oct-18 15:00N 51°55' E 001°20'3 2.5
2017-Oct-18 13:59N 51°58' E 001°18'0 0.0
2017-Oct-18 13:29N 51°58' E 001°18'0 0.0
2017-Oct-18 12:59N 51°58' E 001°18'0 0.0
2017-Oct-18 12:29N 51°58' E 001°18'0 0.0
2017-Oct-18 11:59N 51°58' E 001°18'0 0.0
2017-Oct-18 11:29N 51°58' E 001°18'0 0.0
2017-Oct-18 10:59N 51°58' E 001°18'0 0.0
2017-Oct-18 10:29N 51°58' E 001°18'0 0.0
2017-Oct-18 09:59N 51°58' E 001°18'0 0.0
2017-Oct-18 09:29N 51°58' E 001°18'0 0.0
2017-Oct-18 08:59N 51°58' E 001°18'0 0.0
2017-Oct-18 08:29N 51°58' E 001°18'0 0.0
2017-Oct-18 07:59N 51°58' E 001°18'0 0.0
2017-Oct-18 07:29N 51°58' E 001°18'0 0.0
2017-Oct-18 06:59N 51°58' E 001°18'0 0.0
2017-Oct-18 06:29N 51°58' E 001°18'0 0.0
2017-Oct-18 05:59N 51°58' E 001°18'0 0.0
2017-Oct-18 05:29N 51°58' E 001°18'0 0.0
2017-Oct-18 04:59N 51°58' E 001°18'0 0.0
2017-Oct-18 04:29N 51°58' E 001°18'0 0.0
2017-Oct-18 03:59N 51°58' E 001°18'0 0.0
2017-Oct-18 03:29N 51°58' E 001°18'0 0.0
2017-Oct-18 02:59N 51°58' E 001°18'0 0.0
2017-Oct-18 02:29N 51°58' E 001°18'0 0.0
2017-Oct-18 01:59N 51°58' E 001°18'0 0.0
2017-Oct-18 01:29N 51°58' E 001°18'0 0.0
2017-Oct-18 00:59N 51°58' E 001°18'0 0.0
2017-Oct-18 00:29N 51°58' E 001°18'0 0.0
2017-Oct-17 23:59N 51°58' E 001°18'0 0.0
2017-Oct-17 23:29N 51°58' E 001°18'0 0.0
2017-Oct-17 22:59N 51°58' E 001°18'0 0.0
2017-Oct-17 22:29N 51°58' E 001°18'0 0.0
2017-Oct-17 21:59N 51°58' E 001°18'0 0.9
2017-Oct-17 21:30N 51°57' E 001°18'3 5.1
2017-Oct-17 21:00N 51°56' E 001°21'714.1
2017-Oct-17 20:30N 51°56' E 001°33'611.3
2017-Oct-17 20:00N 51°52' E 001°39'4 7.7
2017-Oct-17 19:30N 51°51' E 001°45'3 5.5
2017-Oct-17 19:00N 51°49' E 001°48'4 7.7
2017-Oct-17 18:30N 51°45' E 001°48'4 7.7
2017-Oct-17 18:00N 51°42' E 001°49'510.3
2017-Oct-17 17:30N 51°37' E 001°53'1 1.8
2017-Oct-17 17:00N 51°37' E 001°54'0 0.6
2017-Oct-17 16:31N 51°37' E 001°54'0 0.7
2017-Oct-17 16:00N 51°37' E 001°54'0 0.6
2017-Oct-17 15:31N 51°37' E 001°54'0 0.9
2017-Oct-17 15:00N 51°37' E 001°53'0 0.8
2017-Oct-17 14:31N 51°37' E 001°52'0 0.7
2017-Oct-17 14:01N 51°37' E 001°52'1 2.1
2017-Oct-17 13:31N 51°36' E 001°51'1 2.1
2017-Oct-17 13:00N 51°35' E 001°51'2 3.3
2017-Oct-17 12:31N 51°36' E 001°53'1 1.6
2017-Oct-17 12:01N 51°35' E 001°53'1 2.7
2017-Oct-17 11:30N 51°34' E 001°52'1 2.3
2017-Oct-17 11:00N 51°33' E 001°51'1 2.9
2017-Oct-17 10:30N 51°34' E 001°52'1 1.5
2017-Oct-17 10:00N 51°34' E 001°53'1 1.8
2017-Oct-17 09:31N 51°34' E 001°52'1 2.6
2017-Oct-17 09:01N 51°32' E 001°53'4 7.1
2017-Oct-17 08:30N 51°29' E 001°55'3 6.5
2017-Oct-17 08:01N 51°26' E 001°58'3 6.3
2017-Oct-17 07:31N 51°25' E 002°03'3 6.3
2017-Oct-17 07:00N 51°23' E 002°07'3 6.5
2017-Oct-17 06:31N 51°22' E 002°12'3 6.8
2017-Oct-17 06:01N 51°20' E 002°16'4 8.3
2017-Oct-17 05:31N 51°21' E 002°23'4 8.4
2017-Oct-17 05:00N 51°23' E 002°29'4 7.8
2017-Oct-17 04:30N 51°23' E 002°36'4 7.9
2017-Oct-17 04:00N 51°24' E 002°42'5 9.4
2017-Oct-17 03:30N 51°25' E 002°49'817.0
2017-Oct-17 03:01N 51°25' E 003°02'917.3
2017-Oct-17 02:30N 51°25' E 003°16'918.1
2017-Oct-17 02:01N 51°25' E 003°31'5 9.5
2017-Oct-17 01:30N 51°26' E 003°38'713.1
2017-Oct-17 01:01N 51°22' E 003°46'713.4
2017-Oct-17 00:30N 51°23' E 003°56'4 8.4
2017-Oct-17 00:00N 51°25' E 004°02'5 9.6
2017-Oct-16 23:30N 51°22' E 004°09'4 8.0
2017-Oct-16 23:00N 51°21' E 004°15'3 6.9
2017-Oct-16 22:31N 51°18' E 004°16'0 0.5
2017-Oct-16 22:00N 51°18' E 004°16'0 0.0
2017-Oct-16 21:30N 51°18' E 004°16'0 0.0
2017-Oct-16 21:00N 51°18' E 004°16'0 0.0
2017-Oct-16 20:30N 51°18' E 004°16'0 0.0
2017-Oct-16 20:00N 51°18' E 004°16'0 0.0
2017-Oct-16 19:30N 51°18' E 004°16'0 0.0
2017-Oct-16 19:00N 51°18' E 004°16'0 0.0
2017-Oct-16 18:30N 51°18' E 004°16'0 0.0
2017-Oct-16 17:57N 51°18' E 004°16'0 0.0
2017-Oct-16 17:30N 51°18' E 004°16'0 0.0
2017-Oct-16 17:00N 51°18' E 004°16'0 0.0
2017-Oct-16 16:30N 51°18' E 004°16'0 0.0
2017-Oct-16 16:00N 51°18' E 004°16'0 0.0
2017-Oct-16 15:29N 51°18' E 004°16'0 0.0
2017-Oct-16 14:59N 51°18' E 004°16'0 0.0
2017-Oct-16 13:59N 51°18' E 004°16'0 0.0
2017-Oct-16 13:29N 51°18' E 004°16'0 0.0
2017-Oct-16 12:56N 51°18' E 004°16'0 0.0
2017-Oct-16 12:29N 51°18' E 004°16'0 0.0
2017-Oct-16 11:56N 51°18' E 004°16'0 0.0
2017-Oct-16 11:29N 51°18' E 004°16'0 0.0
2017-Oct-16 10:59N 51°18' E 004°16'0 0.0
2017-Oct-16 10:29N 51°18' E 004°16'0 0.0
2017-Oct-16 09:59N 51°18' E 004°16'0 0.0
2017-Oct-16 09:29N 51°18' E 004°16'0 0.0
2017-Oct-16 08:59N 51°18' E 004°16'0 0.0
2017-Oct-16 08:29N 51°18' E 004°16'0 0.0
2017-Oct-16 07:59N 51°18' E 004°16'0 0.0
2017-Oct-16 07:29N 51°18' E 004°16'0 0.0
2017-Oct-16 06:59N 51°18' E 004°16'0 0.0
2017-Oct-16 06:29N 51°18' E 004°16'0 0.0
2017-Oct-16 05:59N 51°18' E 004°16'0 0.0
2017-Oct-16 05:29N 51°18' E 004°16'0 0.0
2017-Oct-16 04:59N 51°18' E 004°16'0 0.0
2017-Oct-16 04:29N 51°18' E 004°16'0 0.0
2017-Oct-16 03:59N 51°18' E 004°16'0 0.0
2017-Oct-16 03:29N 51°18' E 004°16'0 0.0
2017-Oct-16 02:59N 51°18' E 004°16'0 0.0
2017-Oct-16 02:29N 51°18' E 004°16'0 0.0
2017-Oct-16 01:59N 51°18' E 004°16'0 0.0
2017-Oct-16 01:29N 51°18' E 004°16'0 0.0
2017-Oct-16 00:59N 51°18' E 004°16'0 0.0
2017-Oct-16 00:29N 51°18' E 004°16'0 0.0
2017-Oct-15 23:59N 51°18' E 004°16'0 0.0
2017-Oct-15 23:29N 51°18' E 004°16'0 0.0
2017-Oct-15 22:59N 51°18' E 004°16'0 0.0
2017-Oct-15 22:29N 51°18' E 004°16'0 0.0
2017-Oct-15 21:59N 51°18' E 004°16'0 0.0
2017-Oct-15 21:29N 51°18' E 004°16'0 0.0
2017-Oct-15 20:59N 51°18' E 004°16'0 0.0
2017-Oct-15 20:30N 51°18' E 004°16'1 1.7
2017-Oct-15 20:00N 51°19' E 004°16'3 5.2
2017-Oct-15 19:30N 51°21' E 004°15'5 9.7
2017-Oct-15 19:00N 51°22' E 004°08'612.4
2017-Oct-15 18:31N 51°26' E 004°00'713.8
2017-Oct-15 18:00N 51°21' E 003°53'612.2
2017-Oct-15 17:31N 51°23' E 003°43'510.4
2017-Oct-15 17:00N 51°26' E 003°37'4 7.3
2017-Oct-15 16:31N 51°25' E 003°31'5 9.5
2017-Oct-15 16:00N 51°24' E 003°24'510.8
2017-Oct-15 15:30N 51°25' E 003°15'611.1
2017-Oct-15 15:00N 51°24' E 003°06'1413.5
2017-Oct-15 14:00N 51°24' E 002°44'3 6.5
2017-Oct-15 13:30N 51°23' E 002°39'3 5.8
2017-Oct-15 13:01N 51°22' E 002°35'4 6.2
2017-Oct-15 12:26N 51°22' E 002°29'3 6.8
2017-Oct-15 12:01N 51°21' E 002°25'4 7.1
2017-Oct-15 11:30N 51°19' E 002°20'4 7.4
2017-Oct-15 11:01N 51°17' E 002°15'4 7.6
2017-Oct-15 10:30N 51°15' E 002°10'4 7.9
2017-Oct-15 10:00N 51°13' E 002°05'5 9.4
2017-Oct-15 09:30N 51°11' E 001°58'611.1
2017-Oct-15 09:00N 51°08' E 001°50'611.1
2017-Oct-15 08:30N 51°04' E 001°44'611.5
2017-Oct-15 08:00N 50°60' E 001°38'611.7
2017-Oct-15 07:30N 50°56' E 001°32'611.3
2017-Oct-15 07:00N 50°51' E 001°27'611.4
2017-Oct-15 06:30N 50°45' E 001°24'611.4
2017-Oct-15 06:00N 50°40' E 001°20'611.2
2017-Oct-15 05:30N 50°36' E 001°14'611.4
2017-Oct-15 05:00N 50°33' E 001°07'611.4
2017-Oct-15 04:30N 50°29' E 001°00'611.3
2017-Oct-15 04:00N 50°27' E 000°52'612.3
2017-Oct-15 03:30N 50°25' E 000°43'612.8
2017-Oct-15 03:00N 50°23' E 000°33'612.6
2017-Oct-15 02:30N 50°22' E 000°23'612.4
2017-Oct-15 02:00N 50°21' E 000°14'612.4
2017-Oct-15 01:30N 50°19' E 000°04'612.3
2017-Oct-15 01:00N 50°16' W 000°04'612.3
2017-Oct-15 00:30N 50°15' W 000°14'611.9
2017-Oct-15 00:00N 50°14' W 000°23'612.6
2017-Oct-14 23:30N 50°13' W 000°32'612.6
2017-Oct-14 23:00N 50°11' W 000°42'612.3
2017-Oct-14 22:30N 50°09' W 000°51'611.9
2017-Oct-14 21:59N 50°08' W 001°00'611.4
2017-Oct-14 21:30N 50°07' W 001°09'510.9
2017-Oct-14 21:00N 50°06' W 001°17'510.8
2017-Oct-14 20:31N 50°04' W 001°25'611.0
2017-Oct-14 20:00N 50°03' W 001°34'611.2
2017-Oct-14 19:31N 50°02' W 001°42'611.1
2017-Oct-14 19:00N 50°01' W 001°51'510.8
2017-Oct-14 18:31N 49°60' W 001°59'510.9
2017-Oct-14 18:00N 49°58' W 002°07'611.2
2017-Oct-14 17:30N 49°57' W 002°16'611.3
2017-Oct-14 16:58N 49°56' W 002°25'511.8
2017-Oct-14 16:30N 49°54' W 002°33'612.0
2017-Oct-14 16:00N 49°53' W 002°42'611.9
2017-Oct-14 15:30N 49°51' W 002°51'611.9
2017-Oct-14 15:00N 49°51' W 002°60'611.8
2017-Oct-14 14:30N 49°50' W 003°09'611.9
2017-Oct-14 14:00N 49°50' W 003°18'611.9
2017-Oct-14 13:30N 49°49' W 003°27'611.8
2017-Oct-14 13:00N 49°48' W 003°37'611.9
2017-Oct-14 12:30N 49°48' W 003°46'611.8
2017-Oct-14 12:00N 49°48' W 003°55'612.0
2017-Oct-14 11:30N 49°47' W 004°04'612.3
2017-Oct-14 11:00N 49°47' W 004°14'612.1
2017-Oct-14 10:30N 49°46' W 004°23'612.0
2017-Oct-14 10:00N 49°45' W 004°32'611.9
2017-Oct-14 09:30N 49°44' W 004°41'611.9
2017-Oct-14 09:00N 49°44' W 004°50'611.7
2017-Oct-14 08:30N 49°43' W 004°59'816.4
2017-Oct-14 08:00N 49°43' W 005°12'816.5
2017-Oct-14 07:29N 49°42' W 005°25'916.9
2017-Oct-14 06:57N 49°41' W 005°39'716.7
2017-Oct-14 06:30N 49°40' W 005°50'816.6
2017-Oct-14 06:00N 49°40' W 006°03'1216.3
2017-Oct-14 05:15N 49°39' W 006°22'416.2
2017-Oct-14 05:01N 49°39' W 006°28'816.1
2017-Oct-14 04:30N 49°39' W 006°41'1016.0
2017-Oct-14 03:55N 49°38' W 006°56'716.0
2017-Oct-14 03:30N 49°38' W 007°06'915.9
2017-Oct-14 02:55N 49°38' W 007°20'716.1
2017-Oct-14 02:30N 49°38' W 007°30'85616.9
2017-Oct-12 00:00N 47°42' W 028°54'   200 / 271001.410.8 17.615.816.0

Dump ship's entire track history